sensor_id;sensor_type;location;lat;lon;timestamp;pressure;altitude;pressure_sealevel;temperature;humidity
3844;BME280;1937;51.444;6.484;2023-12-22T00:02:18;103327.97;;;5.51;100.00
3844;BME280;1937;51.444;6.484;2023-12-22T00:04:46;104005.28;;;5.60;100.00
3844;BME280;1937;51.444;6.484;2023-12-22T00:07:13;104340.97;;;5.63;100.00
3844;BME280;1937;51.444;6.484;2023-12-22T00:09:40;103280.13;;;5.23;100.00
3844;BME280;1937;51.444;6.484;2023-12-22T00:12:06;104970.16;;;5.46;100.00
3844;BME280;1937;51.444;6.484;2023-12-22T00:14:33;104997.16;;;5.61;100.00
3844;BME280;1937;51.444;6.484;2023-12-22T00:17:00;104341.88;;;5.64;100.00
3844;BME280;1937;51.444;6.484;2023-12-22T00:19:26;104664.13;;;5.59;100.00
3844;BME280;1937;51.444;6.484;2023-12-22T00:21:54;104341.88;;;5.64;100.00
3844;BME280;1937;51.444;6.484;2023-12-22T00:24:22;104693.75;;;5.76;100.00
3844;BME280;1937;51.444;6.484;2023-12-22T00:26:48;105016.06;;;5.71;100.00
3844;BME280;1937;51.444;6.484;2023-12-22T00:29:15;103386.47;;;5.84;100.00
3844;BME280;1937;51.444;6.484;2023-12-22T00:31:42;101736.88;;;5.85;100.00
3844;BME280;1937;51.444;6.484;2023-12-22T00:34:08;100395.69;;;5.73;100.00
3844;BME280;1937;51.444;6.484;2023-12-22T00:36:35;100385.34;;;5.67;100.00
3844;BME280;1937;51.444;6.484;2023-12-22T00:39:03;100724.84;;;5.72;100.00
3844;BME280;1937;51.444;6.484;2023-12-22T00:41:30;100724.84;;;5.72;100.00
3844;BME280;1937;51.444;6.484;2023-12-22T00:43:56;99410.09;;;5.75;100.00
3844;BME280;1937;51.444;6.484;2023-12-22T00:46:23;99410.94;;;5.76;100.00
3844;BME280;1937;51.444;6.484;2023-12-22T00:48:50;98401.03;;;5.64;100.00
3844;BME280;1937;51.444;6.484;2023-12-22T00:51:16;98027.94;;;5.76;100.00
3844;BME280;1937;51.444;6.484;2023-12-22T00:53:43;97419.41;;;5.68;100.00
3844;BME280;1937;51.444;6.484;2023-12-22T00:56:11;97096.38;;;5.72;100.00
3844;BME280;1937;51.444;6.484;2023-12-22T00:58:39;96936.03;;;5.69;100.00
3844;BME280;1937;51.444;6.484;2023-12-22T01:01:06;97651.19;;;5.70;100.00
3844;BME280;1937;51.444;6.484;2023-12-22T01:03:32;98063.72;;;5.59;100.00
3844;BME280;1937;51.444;6.484;2023-12-22T01:05:59;98386.69;;;5.55;100.00
3844;BME280;1937;51.444;6.484;2023-12-22T01:08:26;98066.22;;;5.61;100.00
3844;BME280;1937;51.444;6.484;2023-12-22T01:10:53;97715.44;;;5.73;100.00
3844;BME280;1937;51.444;6.484;2023-12-22T01:13:21;95563.34;;;5.61;100.00
3844;BME280;1937;51.444;6.484;2023-12-22T01:15:47;96060.50;;;5.69;100.00
3844;BME280;1937;51.444;6.484;2023-12-22T01:18:14;96018.69;;;5.78;100.00
3844;BME280;1937;51.444;6.484;2023-12-22T01:20:41;96397.75;;;5.70;100.00
3844;BME280;1937;51.444;6.484;2023-12-22T01:23:07;98416.22;;;5.73;100.00
3844;BME280;1937;51.444;6.484;2023-12-22T01:25:34;98433.16;;;5.83;100.00
3844;BME280;1937;51.444;6.484;2023-12-22T01:28:00;97444.47;;;5.84;100.00
3844;BME280;1937;51.444;6.484;2023-12-22T01:30:28;98058.28;;;5.93;100.00
3844;BME280;1937;51.444;6.484;2023-12-22T01:32:55;98460.19;;;5.99;100.00
3844;BME280;1937;51.444;6.484;2023-12-22T01:35:22;99137.19;;;6.09;100.00
3844;BME280;1937;51.444;6.484;2023-12-22T01:37:49;99126.97;;;6.03;100.00
3844;BME280;1937;51.444;6.484;2023-12-22T01:40:16;100088.03;;;5.86;100.00
3844;BME280;1937;51.444;6.484;2023-12-22T01:42:43;101731.66;;;5.82;100.00
3844;BME280;1937;51.444;6.484;2023-12-22T01:45:10;102395.56;;;5.84;100.00
3844;BME280;1937;51.444;6.484;2023-12-22T01:47:38;103715.06;;;5.83;100.00
3844;BME280;1937;51.444;6.484;2023-12-22T01:50:06;103390.91;;;5.87;100.00
3844;BME280;1937;51.444;6.484;2023-12-22T01:52:36;103335.06;;;5.55;100.00
3844;BME280;1937;51.444;6.484;2023-12-22T01:55:03;102328.84;;;5.46;100.00
3844;BME280;1937;51.444;6.484;2023-12-22T01:57:31;100341.44;;;5.41;100.00
3844;BME280;1937;51.444;6.484;2023-12-22T01:59:57;98969.72;;;5.10;100.00
3844;BME280;1937;51.444;6.484;2023-12-22T02:02:24;98274.44;;;4.88;100.00
3844;BME280;1937;51.444;6.484;2023-12-22T02:04:52;97901.38;;;4.62;100.00
3844;BME280;1937;51.444;6.484;2023-12-22T02:07:19;98209.47;;;4.49;100.00
3844;BME280;1937;51.444;6.484;2023-12-22T02:09:46;100174.47;;;4.43;100.00
3844;BME280;1937;51.444;6.484;2023-12-22T02:12:12;101490.97;;;4.42;100.00
3844;BME280;1937;51.444;6.484;2023-12-22T02:14:39;102481.09;;;4.43;100.00
3844;BME280;1937;51.444;6.484;2023-12-22T02:17:11;102785.94;;;4.29;100.00
3844;BME280;1937;51.444;6.484;2023-12-22T02:19:42;104455.13;;;4.41;100.00
3844;BME280;1937;51.444;6.484;2023-12-22T02:22:11;104496.38;;;4.65;100.00
3844;BME280;1937;51.444;6.484;2023-12-22T02:24:40;103477.75;;;4.48;100.00
3844;BME280;1937;51.444;6.484;2023-12-22T02:27:13;104143.34;;;4.51;100.00
3844;BME280;1937;51.444;6.484;2023-12-22T02:29:44;104802.81;;;4.51;100.00
3844;BME280;1937;51.444;6.484;2023-12-22T02:32:17;105811.31;;;4.62;100.00
3844;BME280;1937;51.444;6.484;2023-12-22T02:34:49;106792.03;;;4.57;100.00
3844;BME280;1937;51.444;6.484;2023-12-22T02:37:18;108149.31;;;4.77;100.00
3844;BME280;1937;51.444;6.484;2023-12-22T02:39:46;107519.41;;;4.94;100.00
3844;BME280;1937;51.444;6.484;2023-12-22T02:42:13;106505.94;;;4.81;100.00
3844;BME280;1937;51.444;6.484;2023-12-22T02:44:40;107508.34;;;4.88;100.00
3844;BME280;1937;51.444;6.484;2023-12-22T02:47:06;107508.34;;;4.88;100.00
3844;BME280;1937;51.444;6.484;2023-12-22T02:49:33;107535.06;;;5.03;100.00
3844;BME280;1937;51.444;6.484;2023-12-22T02:51:59;107493.56;;;4.80;100.00
3844;BME280;1937;51.444;6.484;2023-12-22T02:54:26;109167.28;;;4.92;100.00
3844;BME280;1937;51.444;6.484;2023-12-22T02:56:56;108514.94;;;4.97;100.00
3844;BME280;1937;51.444;6.484;2023-12-22T02:59:24;109515.53;;;5.02;100.00
3844;BME280;1937;51.444;6.484;2023-12-22T03:01:51;109849.81;;;5.04;100.00
3844;BME280;1937;51.444;6.484;2023-12-22T03:04:17;109208.47;;;5.14;100.00
3844;BME280;1937;51.444;6.484;2023-12-22T03:06:44;108165.09;;;4.86;100.00
3844;BME280;1937;51.444;6.484;2023-12-22T03:09:10;108822.91;;;4.84;100.00
3844;BME280;1937;51.444;6.484;2023-12-22T03:11:37;107815.44;;;4.75;100.00
3844;BME280;1937;51.444;6.484;2023-12-22T03:14:05;108145.63;;;4.75;100.00
3844;BME280;1937;51.444;6.484;2023-12-22T03:16:31;107505.56;;;4.86;100.00
3844;BME280;1937;51.444;6.484;2023-12-22T03:18:58;105851.25;;;4.84;100.00
3844;BME280;1937;51.444;6.484;2023-12-22T03:21:25;105834.00;;;4.75;100.00
3844;BME280;1937;51.444;6.484;2023-12-22T03:23:51;105165.97;;;4.70;100.00
3844;BME280;1937;51.444;6.484;2023-12-22T03:26:18;105495.00;;;4.70;100.00
3844;BME280;1937;51.444;6.484;2023-12-22T03:28:45;105176.81;;;4.76;100.00
3844;BME280;1937;51.444;6.484;2023-12-22T03:31:13;104484.72;;;4.58;100.00
3844;BME280;1937;51.444;6.484;2023-12-22T03:33:39;103835.03;;;4.64;100.00
3844;BME280;1937;51.444;6.484;2023-12-22T03:36:06;103503.53;;;4.63;100.00
3844;BME280;1937;51.444;6.484;2023-12-22T03:38:32;103180.91;;;4.67;100.00
3844;BME280;1937;51.444;6.484;2023-12-22T03:40:59;103508.84;;;4.66;100.00
3844;BME280;1937;51.444;6.484;2023-12-22T03:43:25;103829.66;;;4.61;100.00
3844;BME280;1937;51.444;6.484;2023-12-22T03:45:52;105498.59;;;4.72;100.00
3844;BME280;1937;51.444;6.484;2023-12-22T03:48:20;106167.66;;;4.77;100.00
3844;BME280;1937;51.444;6.484;2023-12-22T03:50:46;107512.00;;;4.90;100.00
3844;BME280;1937;51.444;6.484;2023-12-22T03:53:13;106565.31;;;5.14;100.00
3844;BME280;1937;51.444;6.484;2023-12-22T03:55:39;106583.59;;;5.24;100.00
3844;BME280;1937;51.444;6.484;2023-12-22T03:58:06;105574.66;;;5.14;100.00
3844;BME280;1937;51.444;6.484;2023-12-22T04:00:33;104587.84;;;5.16;100.00
3844;BME280;1937;51.444;6.484;2023-12-22T04:03:00;103241.13;;;5.01;100.00
3844;BME280;1937;51.444;6.484;2023-12-22T04:05:28;103596.81;;;5.16;100.00
3844;BME280;1937;51.444;6.484;2023-12-22T04:07:55;102277.06;;;5.16;100.00
3844;BME280;1937;51.444;6.484;2023-12-22T04:10:21;101647.91;;;5.33;100.00
3844;BME280;1937;51.444;6.484;2023-12-22T04:12:48;99655.31;;;5.25;100.00
3844;BME280;1937;51.444;6.484;2023-12-22T04:15:14;98658.81;;;5.21;100.00
3844;BME280;1937;51.444;6.484;2023-12-22T04:17:41;98991.81;;;5.23;100.00
3844;BME280;1937;51.444;6.484;2023-12-22T04:20:08;99994.44;;;5.31;100.00
3844;BME280;1937;51.444;6.484;2023-12-22T04:22:36;100670.44;;;5.41;100.00
3844;BME280;1937;51.444;6.484;2023-12-22T04:25:03;100033.06;;;5.54;100.00
3844;BME280;1937;51.444;6.484;2023-12-22T04:27:29;100370.72;;;5.58;100.00
3844;BME280;1937;51.444;6.484;2023-12-22T04:29:58;100372.44;;;5.59;100.00
3844;BME280;1937;51.444;6.484;2023-12-22T04:32:25;100399.13;;;5.75;100.00
3844;BME280;1937;51.444;6.484;2023-12-22T04:34:51;99431.44;;;5.88;100.00
3844;BME280;1937;51.444;6.484;2023-12-22T04:37:18;96385.88;;;5.82;100.00
3844;BME280;1937;51.444;6.484;2023-12-22T04:39:46;95217.50;;;6.05;100.00
3844;BME280;1937;51.444;6.484;2023-12-22T04:42:12;92957.91;;;6.10;100.00
3844;BME280;1937;51.444;6.484;2023-12-22T04:44:39;92379.97;;;6.28;100.00
3844;BME280;1937;51.444;6.484;2023-12-22T04:47:05;90438.28;;;6.24;100.00
3844;BME280;1937;51.444;6.484;2023-12-22T04:49:32;90227.41;;;6.39;100.00
3844;BME280;1937;51.444;6.484;2023-12-22T04:51:59;89509.31;;;6.30;100.00
3844;BME280;1937;51.444;6.484;2023-12-22T04:54:25;88852.25;;;6.23;100.00
3844;BME280;1937;51.444;6.484;2023-12-22T04:56:53;88445.34;;;6.26;100.00
3844;BME280;1937;51.444;6.484;2023-12-22T04:59:20;89165.50;;;6.21;100.00
3844;BME280;1937;51.444;6.484;2023-12-22T05:01:46;91591.34;;;6.04;100.00
3844;BME280;1937;51.444;6.484;2023-12-22T05:04:13;93148.22;;;6.12;100.00
3844;BME280;1937;51.444;6.484;2023-12-22T05:06:39;94643.28;;;6.23;100.00
3844;BME280;1937;51.444;6.484;2023-12-22T05:09:06;95388.19;;;6.18;100.00
3844;BME280;1937;51.444;6.484;2023-12-22T05:11:32;94631.75;;;6.27;100.00
3844;BME280;1937;51.444;6.484;2023-12-22T05:14:00;94392.72;;;6.30;100.00
3844;BME280;1937;51.444;6.484;2023-12-22T05:16:27;92008.09;;;6.24;100.00
3844;BME280;1937;51.444;6.484;2023-12-22T05:18:56;91038.69;;;6.29;100.00
3844;BME280;1937;51.444;6.484;2023-12-22T05:21:23;89458.09;;;6.34;100.00
3844;BME280;1937;51.444;6.484;2023-12-22T05:23:50;89156.16;;;6.30;100.00
3844;BME280;1937;51.444;6.484;2023-12-22T05:26:17;88768.97;;;5.86;100.00
3844;BME280;1937;51.444;6.484;2023-12-22T05:28:44;92078.25;;;5.73;100.00
3844;BME280;1937;51.444;6.484;2023-12-22T05:31:12;92842.75;;;5.68;100.00
3844;BME280;1937;51.444;6.484;2023-12-22T05:33:39;94088.69;;;5.53;100.00
3844;BME280;1937;51.444;6.484;2023-12-22T05:36:06;96255.63;;;5.37;100.00
3844;BME280;1937;51.444;6.484;2023-12-22T05:38:32;99028.34;;;5.45;100.00
3844;BME280;1937;51.444;6.484;2023-12-22T05:41:03;98003.16;;;5.23;100.00
3844;BME280;1937;51.444;6.484;2023-12-22T05:43:29;101022.81;;;5.54;100.00
3844;BME280;1937;51.444;6.484;2023-12-22T05:45:56;101009.81;;;5.46;100.00
3844;BME280;1937;51.444;6.484;2023-12-22T05:48:24;101369.31;;;5.63;100.00
3844;BME280;1937;51.444;6.484;2023-12-22T05:50:51;99404.97;;;5.72;100.00
3844;BME280;1937;51.444;6.484;2023-12-22T05:53:17;98418.78;;;5.74;100.00
3844;BME280;1937;51.444;6.484;2023-12-22T05:55:44;99751.16;;;5.82;100.00
3844;BME280;1937;51.444;6.484;2023-12-22T05:58:10;99760.59;;;5.88;100.00
3844;BME280;1937;51.444;6.484;2023-12-22T06:00:37;98784.22;;;5.96;100.00
3844;BME280;1937;51.444;6.484;2023-12-22T06:03:04;97477.75;;;6.08;100.00
3844;BME280;1937;51.444;6.484;2023-12-22T06:05:32;95205.28;;;6.18;100.00
3844;BME280;1937;51.444;6.484;2023-12-22T06:07:58;93877.34;;;6.15;100.00
3844;BME280;1937;51.444;6.484;2023-12-22T06:10:25;94227.19;;;6.28;100.00
3844;BME280;1937;51.444;6.484;2023-12-22T06:12:52;93676.94;;;6.27;100.00
3844;BME280;1937;51.444;6.484;2023-12-22T06:15:18;92477.63;;;6.29;100.00
3844;BME280;1937;51.444;6.484;2023-12-22T06:17:45;90935.16;;;6.39;100.00
3844;BME280;1937;51.444;6.484;2023-12-22T06:20:12;90079.16;;;6.38;100.00
3844;BME280;1937;51.444;6.484;2023-12-22T06:22:39;89448.44;;;6.49;100.00
3844;BME280;1937;51.444;6.484;2023-12-22T06:25:06;88528.50;;;6.57;100.00
3844;BME280;1937;51.444;6.484;2023-12-22T06:27:34;88551.88;;;6.69;100.00
3844;BME280;1937;51.444;6.484;2023-12-22T06:30:02;87156.25;;;6.54;100.00
3844;BME280;1937;51.444;6.484;2023-12-22T06:32:29;87155.06;;;6.64;100.00
3844;BME280;1937;51.444;6.484;2023-12-22T06:34:55;84971.25;;;6.71;98.28
3844;BME280;1937;51.444;6.484;2023-12-22T06:37:24;83581.41;;;6.84;97.56
3844;BME280;1937;51.444;6.484;2023-12-22T06:39:52;81872.16;;;6.85;96.12
3844;BME280;1937;51.444;6.484;2023-12-22T06:42:19;80762.09;;;7.00;96.62
3844;BME280;1937;51.444;6.484;2023-12-22T06:44:46;79398.81;;;6.98;95.02
3844;BME280;1937;51.444;6.484;2023-12-22T06:47:13;79316.44;;;7.12;96.02
3844;BME280;1937;51.444;6.484;2023-12-22T06:49:39;78756.88;;;7.16;95.31
3844;BME280;1937;51.444;6.484;2023-12-22T06:52:06;78573.34;;;7.17;95.13
3844;BME280;1937;51.444;6.484;2023-12-22T06:54:32;77798.69;;;7.19;94.70
3844;BME280;1937;51.444;6.484;2023-12-22T06:57:00;77040.41;;;7.26;93.00
3844;BME280;1937;51.444;6.484;2023-12-22T06:59:27;76274.22;;;7.27;93.31
3844;BME280;1937;51.444;6.484;2023-12-22T07:01:53;76104.22;;;7.29;92.99
3844;BME280;1937;51.444;6.484;2023-12-22T07:04:21;76184.50;;;7.55;93.34
3844;BME280;1937;51.444;6.484;2023-12-22T07:06:47;75903.03;;;7.40;93.70
3844;BME280;1937;51.444;6.484;2023-12-22T07:09:32;76739.19;;;7.37;95.52
3844;BME280;1937;51.444;6.484;2023-12-22T07:12:00;77213.66;;;7.55;94.82
3844;BME280;1937;51.444;6.484;2023-12-22T07:14:29;77160.97;;;7.54;94.88
3844;BME280;1937;51.444;6.484;2023-12-22T07:16:55;77588.78;;;7.57;95.42
3844;BME280;1937;51.444;6.484;2023-12-22T07:19:23;77967.63;;;7.44;97.17
3844;BME280;1937;51.444;6.484;2023-12-22T07:21:50;78742.91;;;7.36;97.42
3844;BME280;1937;51.444;6.484;2023-12-22T07:24:16;79151.56;;;7.30;97.56
3844;BME280;1937;51.444;6.484;2023-12-22T07:26:44;79096.63;;;7.43;96.73
3844;BME280;1937;51.444;6.484;2023-12-22T07:29:12;79199.84;;;7.32;97.07
3844;BME280;1937;51.444;6.484;2023-12-22T07:31:38;79374.53;;;7.32;97.23
3844;BME280;1937;51.444;6.484;2023-12-22T07:34:05;79423.84;;;7.38;96.76
3844;BME280;1937;51.444;6.484;2023-12-22T07:36:31;79220.66;;;7.19;97.66
3844;BME280;1937;51.444;6.484;2023-12-22T07:38:58;79419.06;;;7.34;97.24
3844;BME280;1937;51.444;6.484;2023-12-22T07:41:26;79717.44;;;7.16;98.73
3844;BME280;1937;51.444;6.484;2023-12-22T07:43:52;80389.72;;;7.21;99.16
3844;BME280;1937;51.444;6.484;2023-12-22T07:46:20;81625.84;;;7.32;99.22
3844;BME280;1937;51.444;6.484;2023-12-22T07:48:47;81911.69;;;7.30;100.00
3844;BME280;1937;51.444;6.484;2023-12-22T07:51:14;82509.19;;;7.48;99.22
3844;BME280;1937;51.444;6.484;2023-12-22T07:53:40;82553.16;;;7.50;100.00
3844;BME280;1937;51.444;6.484;2023-12-22T07:56:07;82991.47;;;7.52;100.00
3844;BME280;1937;51.444;6.484;2023-12-22T07:58:35;82037.63;;;7.56;99.10
3844;BME280;1937;51.444;6.484;2023-12-22T08:01:03;81349.19;;;7.81;97.82
3844;BME280;1937;51.444;6.484;2023-12-22T08:03:32;80535.25;;;7.76;97.58
3844;BME280;1937;51.444;6.484;2023-12-22T08:05:58;80702.22;;;7.74;98.11
3844;BME280;1937;51.444;6.484;2023-12-22T08:08:25;80834.63;;;7.87;97.91
3844;BME280;1937;51.444;6.484;2023-12-22T08:10:51;80854.03;;;7.88;97.51
3844;BME280;1937;51.444;6.484;2023-12-22T08:13:18;80715.09;;;7.88;97.79
3844;BME280;1937;51.444;6.484;2023-12-22T08:15:45;81081.25;;;7.96;98.36
3844;BME280;1937;51.444;6.484;2023-12-22T08:18:11;81124.31;;;7.95;98.35
3844;BME280;1937;51.444;6.484;2023-12-22T08:20:39;81477.31;;;7.99;98.16
3844;BME280;1937;51.444;6.484;2023-12-22T08:23:06;80967.50;;;8.03;97.63
3844;BME280;1937;51.444;6.484;2023-12-22T08:25:33;81073.59;;;8.14;98.27
3844;BME280;1937;51.444;6.484;2023-12-22T08:27:59;80686.38;;;8.29;96.59
3844;BME280;1937;51.444;6.484;2023-12-22T08:30:26;80220.13;;;8.25;96.87
3844;BME280;1937;51.444;6.484;2023-12-22T08:32:53;79788.47;;;8.40;95.74
3844;BME280;1937;51.444;6.484;2023-12-22T08:35:19;79447.75;;;8.28;96.66
3844;BME280;1937;51.444;6.484;2023-12-22T08:37:47;79387.88;;;8.52;95.97
3844;BME280;1937;51.444;6.484;2023-12-22T08:40:14;78701.44;;;8.55;95.06
3844;BME280;1937;51.444;6.484;2023-12-22T08:42:41;78753.06;;;8.47;95.46
3844;BME280;1937;51.444;6.484;2023-12-22T08:45:08;78362.22;;;8.63;94.82
3844;BME280;1937;51.444;6.484;2023-12-22T08:47:34;77756.06;;;8.62;94.12
3844;BME280;1937;51.444;6.484;2023-12-22T08:50:01;77754.59;;;8.71;94.01
3844;BME280;1937;51.444;6.484;2023-12-22T08:52:29;77650.47;;;8.74;94.42
3844;BME280;1937;51.444;6.484;2023-12-22T08:54:57;77291.84;;;8.83;93.67
3844;BME280;1937;51.444;6.484;2023-12-22T08:57:24;77308.28;;;8.91;93.62
3844;BME280;1937;51.444;6.484;2023-12-22T08:59:50;76840.59;;;8.76;94.22
3844;BME280;1937;51.444;6.484;2023-12-22T09:02:17;76878.50;;;8.93;93.50
3844;BME280;1937;51.444;6.484;2023-12-22T09:04:44;76816.66;;;8.91;93.52
3844;BME280;1937;51.444;6.484;2023-12-22T09:07:10;76786.63;;;8.98;93.31
3844;BME280;1937;51.444;6.484;2023-12-22T09:09:37;76381.78;;;8.95;92.83
3844;BME280;1937;51.444;6.484;2023-12-22T09:12:05;76432.59;;;8.71;94.62
3844;BME280;1937;51.444;6.484;2023-12-22T09:14:32;76983.44;;;8.95;93.72
3844;BME280;1937;51.444;6.484;2023-12-22T09:16:59;76862.91;;;8.89;94.44
3844;BME280;1937;51.444;6.484;2023-12-22T09:19:25;76968.88;;;8.84;95.02
3844;BME280;1937;51.444;6.484;2023-12-22T09:21:52;77247.59;;;8.86;94.74
3844;BME280;1937;51.444;6.484;2023-12-22T09:24:19;78013.53;;;8.64;97.10
3844;BME280;1937;51.444;6.484;2023-12-22T09:26:46;78914.97;;;8.62;97.74
3844;BME280;1937;51.444;6.484;2023-12-22T09:29:15;79792.91;;;8.55;99.13
3844;BME280;1937;51.444;6.484;2023-12-22T09:31:42;80339.31;;;8.61;98.61
3844;BME280;1937;51.444;6.484;2023-12-22T09:34:09;80415.44;;;8.70;98.35
3844;BME280;1937;51.444;6.484;2023-12-22T09:36:35;80151.03;;;8.72;97.70
3844;BME280;1937;51.444;6.484;2023-12-22T09:39:02;79956.84;;;8.75;97.49
3844;BME280;1937;51.444;6.484;2023-12-22T09:41:29;79856.41;;;8.75;97.84
3844;BME280;1937;51.444;6.484;2023-12-22T09:43:56;79814.66;;;8.84;97.39
3844;BME280;1937;51.444;6.484;2023-12-22T09:46:25;79455.28;;;8.83;96.96
3844;BME280;1937;51.444;6.484;2023-12-22T09:48:52;79558.72;;;8.97;96.37
3844;BME280;1937;51.444;6.484;2023-12-22T09:51:20;79031.88;;;9.06;95.82
3844;BME280;1937;51.444;6.484;2023-12-22T09:53:47;79174.97;;;9.16;96.21
3844;BME280;1937;51.444;6.484;2023-12-22T09:56:16;78760.81;;;9.26;95.69
3844;BME280;1937;51.444;6.484;2023-12-22T09:58:44;78747.41;;;9.18;95.96
3844;BME280;1937;51.444;6.484;2023-12-22T10:01:12;78680.22;;;9.35;95.43
3844;BME280;1937;51.444;6.484;2023-12-22T10:03:41;78533.50;;;9.28;95.96
3844;BME280;1937;51.444;6.484;2023-12-22T10:06:09;78839.03;;;9.31;96.06
3844;BME280;1937;51.444;6.484;2023-12-22T10:08:36;79363.47;;;9.30;96.75
3844;BME280;1937;51.444;6.484;2023-12-22T10:11:04;79906.66;;;9.22;97.62
3844;BME280;1937;51.444;6.484;2023-12-22T10:13:36;80435.66;;;9.07;98.86
3844;BME280;1937;51.444;6.484;2023-12-22T10:16:04;83292.06;;;8.81;100.00
3844;BME280;1937;51.444;6.484;2023-12-22T10:18:32;87403.09;;;8.75;100.00
3844;BME280;1937;51.444;6.484;2023-12-22T10:21:00;89977.34;;;8.85;100.00
3844;BME280;1937;51.444;6.484;2023-12-22T10:23:27;92188.44;;;8.75;100.00
3844;BME280;1937;51.444;6.484;2023-12-22T10:25:54;93417.34;;;8.74;100.00
3844;BME280;1937;51.444;6.484;2023-12-22T10:28:23;96511.72;;;8.65;100.00
3844;BME280;1937;51.444;6.484;2023-12-22T10:30:52;99911.44;;;8.73;100.00
3844;BME280;1937;51.444;6.484;2023-12-22T10:33:21;102221.81;;;8.66;100.00
3844;BME280;1937;51.444;6.484;2023-12-22T10:35:47;104892.97;;;8.75;100.00
3844;BME280;1937;51.444;6.484;2023-12-22T10:38:18;106918.78;;;8.93;100.00
3844;BME280;1937;51.444;6.484;2023-12-22T10:40:45;108237.31;;;8.87;100.00
3844;BME280;1937;51.444;6.484;2023-12-22T10:43:12;109930.88;;;9.04;100.00
3844;BME280;1937;51.444;6.484;2023-12-22T10:45:40;108947.88;;;9.12;100.00
3844;BME280;1937;51.444;6.484;2023-12-22T10:48:07;109283.31;;;9.14;100.00
3844;BME280;1937;51.444;6.484;2023-12-22T10:50:33;110297.53;;;9.22;100.00
3844;BME280;1937;51.444;6.484;2023-12-22T10:53:00;109615.06;;;9.13;100.00
3844;BME280;1937;51.444;6.484;2023-12-22T10:55:28;110325.81;;;9.37;100.00
3844;BME280;1937;51.444;6.484;2023-12-22T10:57:55;109341.25;;;9.45;100.00
3844;BME280;1937;51.444;6.484;2023-12-22T11:00:22;108345.63;;;9.47;100.00
3844;BME280;1937;51.444;6.484;2023-12-22T11:02:49;107008.38;;;9.43;100.00
3844;BME280;1937;51.444;6.484;2023-12-22T11:05:23;106011.59;;;9.43;100.00
3844;BME280;1937;51.444;6.484;2023-12-22T11:07:55;105030.31;;;9.53;100.00
3844;BME280;1937;51.444;6.484;2023-12-22T11:10:28;104360.06;;;9.50;100.00
3844;BME280;1937;51.444;6.484;2023-12-22T11:12:57;104356.50;;;9.48;100.00
3844;BME280;1937;51.444;6.484;2023-12-22T11:15:24;103369.19;;;9.53;100.00
3844;BME280;1937;51.444;6.484;2023-12-22T11:17:52;104406.47;;;9.76;100.00
3844;BME280;1937;51.444;6.484;2023-12-22T11:20:22;103053.59;;;9.63;100.00
3844;BME280;1937;51.444;6.484;2023-12-22T11:22:52;102703.72;;;9.53;100.00
3844;BME280;1937;51.444;6.484;2023-12-22T11:25:20;101747.09;;;9.76;100.00
3844;BME280;1937;51.444;6.484;2023-12-22T11:27:52;99764.13;;;9.82;100.00
3844;BME280;1937;51.444;6.484;2023-12-22T11:30:20;93570.91;;;9.72;100.00
3844;BME280;1937;51.444;6.484;2023-12-22T11:32:49;91557.88;;;9.86;99.58
3844;BME280;1937;51.444;6.484;2023-12-22T11:35:16;89507.50;;;9.90;99.28
3844;BME280;1937;51.444;6.484;2023-12-22T11:37:43;88598.91;;;9.96;98.85
3844;BME280;1937;51.444;6.484;2023-12-22T11:40:10;87049.22;;;9.94;97.54
3844;BME280;1937;51.444;6.484;2023-12-22T11:42:40;85600.47;;;9.81;97.40
3844;BME280;1937;51.444;6.484;2023-12-22T11:45:11;85918.97;;;10.03;97.66
3844;BME280;1937;51.444;6.484;2023-12-22T11:47:38;84981.50;;;9.96;96.94
3844;BME280;1937;51.444;6.484;2023-12-22T11:50:09;83773.69;;;10.15;95.97
3844;BME280;1937;51.444;6.484;2023-12-22T11:52:36;81851.53;;;10.15;94.74
3844;BME280;1937;51.444;6.484;2023-12-22T11:55:03;81033.44;;;10.08;94.70
3844;BME280;1937;51.444;6.484;2023-12-22T11:57:30;80668.91;;;10.10;93.97
3844;BME280;1937;51.444;6.484;2023-12-22T11:59:57;80424.00;;;10.14;94.89
3844;BME280;1937;51.444;6.484;2023-12-22T12:02:25;79672.41;;;10.25;93.48
3844;BME280;1937;51.444;6.484;2023-12-22T12:04:52;79401.34;;;10.52;92.55
3844;BME280;1937;51.444;6.484;2023-12-22T12:07:49;78782.50;;;10.35;93.39
3844;BME280;1937;51.444;6.484;2023-12-22T12:10:50;78326.50;;;10.51;92.53
3844;BME280;1937;51.444;6.484;2023-12-22T12:13:22;78500.50;;;10.58;92.75
3844;BME280;1937;51.444;6.484;2023-12-22T12:15:50;77745.16;;;10.55;92.51
3844;BME280;1937;51.444;6.484;2023-12-22T12:18:21;77277.84;;;10.51;92.23
3844;BME280;1937;51.444;6.484;2023-12-22T12:20:48;77330.47;;;10.44;92.57
3844;BME280;1937;51.444;6.484;2023-12-22T12:23:15;77235.22;;;10.32;92.85
3844;BME280;1937;51.444;6.484;2023-12-22T12:25:43;77114.44;;;10.46;92.16
3844;BME280;1937;51.444;6.484;2023-12-22T12:28:09;76452.38;;;10.65;90.62
3844;BME280;1937;51.444;6.484;2023-12-22T12:30:37;75885.19;;;10.57;90.79
3844;BME280;1937;51.444;6.484;2023-12-22T12:33:06;75706.31;;;10.39;91.16
3844;BME280;1937;51.444;6.484;2023-12-22T12:35:35;75798.50;;;10.38;91.08
3844;BME280;1937;51.444;6.484;2023-12-22T12:38:03;75527.03;;;10.36;90.59
3844;BME280;1937;51.444;6.484;2023-12-22T12:40:29;75505.16;;;10.41;90.81
3844;BME280;1937;51.444;6.484;2023-12-22T12:42:57;75638.63;;;10.40;90.96
3844;BME280;1937;51.444;6.484;2023-12-22T12:45:25;75476.19;;;10.46;91.28
3844;BME280;1937;51.444;6.484;2023-12-22T12:47:55;75870.84;;;10.46;92.41
3844;BME280;1937;51.444;6.484;2023-12-22T12:50:23;76691.66;;;10.37;93.91
3844;BME280;1937;51.444;6.484;2023-12-22T12:52:51;76616.16;;;10.12;94.28
3844;BME280;1937;51.444;6.484;2023-12-22T12:55:19;76583.84;;;10.09;93.83
3844;BME280;1937;51.444;6.484;2023-12-22T12:57:48;76542.31;;;9.99;94.07
3844;BME280;1937;51.444;6.484;2023-12-22T13:00:15;76537.34;;;10.07;93.68
3844;BME280;1937;51.444;6.484;2023-12-22T13:02:42;76396.16;;;10.06;93.51
3844;BME280;1937;51.444;6.484;2023-12-22T13:05:09;76482.97;;;9.97;94.25
3844;BME280;1937;51.444;6.484;2023-12-22T13:07:36;77079.78;;;9.96;94.58
3844;BME280;1937;51.444;6.484;2023-12-22T13:10:05;77252.66;;;10.16;94.71
3844;BME280;1937;51.444;6.484;2023-12-22T13:12:32;76967.31;;;10.24;93.25
3844;BME280;1937;51.444;6.484;2023-12-22T13:15:02;76912.13;;;10.14;94.06
3844;BME280;1937;51.444;6.484;2023-12-22T13:17:29;76952.47;;;10.25;94.18
3844;BME280;1937;51.444;6.484;2023-12-22T13:19:55;76755.78;;;10.24;93.52
3844;BME280;1937;51.444;6.484;2023-12-22T13:22:22;76686.59;;;10.17;94.03
3844;BME280;1937;51.444;6.484;2023-12-22T13:24:55;77233.53;;;10.21;95.02